Time,TemperatureF,DewpointF,PressureIn,WindDirection,WindDirectionDegrees,WindSpeedMPH,WindSpeedGustMPH,Humidity,HourlyPrecipIn,Conditions,Clouds,dailyrainin,SoftwareType,DateUTC
2013-10-17 00:01:00,53.2,50.0,29.72,SW,235,3.0,9.0,87,0.00,,,0.63,weatherlink.com 1.10,2013-10-16 23:01:00,
2013-10-17 00:16:00,53.2,50.0,29.73,SW,228,3.0,11.0,87,0.00,,,0.63,weatherlink.com 1.10,2013-10-16 23:16:00,
2013-10-17 00:31:00,53.2,50.0,29.73,West,271,1.0,7.0,87,0.00,,,0.63,weatherlink.com 1.10,2013-10-16 23:31:00,
2013-10-17 00:46:00,52.9,49.0,29.73,ENE,58,1.0,6.0,87,0.00,,,0.63,weatherlink.com 1.10,2013-10-16 23:46:00,
2013-10-17 01:01:00,53.2,50.0,29.73,WNW,293,1.0,10.0,88,0.00,,,0.63,weatherlink.com 1.10,2013-10-17 00:01:00,
2013-10-17 01:16:00,53.2,50.0,29.74,SW,235,1.0,5.0,88,0.00,,,0.63,weatherlink.com 1.10,2013-10-17 00:16:00,
2013-10-17 01:31:00,52.7,49.0,29.74,SSE,158,0.0,2.0,88,0.00,,,0.63,weatherlink.com 1.10,2013-10-17 00:31:00,
2013-10-17 01:46:00,52.1,49.0,29.74,SSE,155,0.0,1.0,88,0.00,,,0.63,weatherlink.com 1.10,2013-10-17 00:46:00,
2013-10-17 02:01:00,51.7,49.0,29.74,SSE,158,1.0,4.0,89,0.00,,,0.63,weatherlink.com 1.10,2013-10-17 01:01:00,
2013-10-17 02:16:00,52.2,49.0,29.75,WSW,246,1.0,5.0,89,0.00,,,0.63,weatherlink.com 1.10,2013-10-17 01:16:00,
2013-10-17 02:31:00,52.3,49.0,29.75,West,262,1.0,5.0,88,0.00,,,0.63,weatherlink.com 1.10,2013-10-17 01:31:00,
2013-10-17 02:46:00,52.1,49.0,29.75,West,276,1.0,4.0,89,0.00,,,0.63,weatherlink.com 1.10,2013-10-17 01:46:00,
2013-10-17 03:01:00,52.2,49.0,29.75,West,268,0.0,5.0,88,0.00,,,0.63,weatherlink.com 1.10,2013-10-17 02:01:00,
2013-10-17 03:16:00,52.1,49.0,29.75,SSW,198,1.0,6.0,89,0.00,,,0.63,weatherlink.com 1.10,2013-10-17 02:16:00,
2013-10-17 03:31:00,52.0,49.0,29.75,WNW,282,0.0,3.0,88,0.00,,,0.63,weatherlink.com 1.10,2013-10-17 02:31:00,
2013-10-17 03:46:00,51.9,49.0,29.75,West,269,1.0,4.0,88,0.00,,,0.63,weatherlink.com 1.10,2013-10-17 02:46:00,
2013-10-17 04:01:00,51.9,49.0,29.76,SSW,200,1.0,4.0,89,0.00,,,0.63,weatherlink.com 1.10,2013-10-17 03:01:00,
2013-10-17 04:16:00,51.7,48.0,29.76,WSW,245,0.0,3.0,88,0.00,,,0.63,weatherlink.com 1.10,2013-10-17 03:16:00,
2013-10-17 04:31:00,51.4,48.0,29.77,East,91,0.0,4.0,89,0.00,,,0.00,weatherlink.com 1.10,2013-10-17 03:31:00,
2013-10-17 04:46:00,51.2,48.0,29.77,West,271,0.0,2.0,89,0.00,,,0.00,weatherlink.com 1.10,2013-10-17 03:46:00,
2013-10-17 05:01:00,51.2,48.0,29.77,SW,236,1.0,4.0,90,0.00,,,0.00,weatherlink.com 1.10,2013-10-17 04:01:00,
2013-10-17 05:16:00,-999.0,-99.9,29.78,North,-999,-999.0,-999.0,-999,0.00,,,0.00,weatherlink.com 1.10,2013-10-17 04:16:00,
2013-10-17 05:31:00,-999.0,-99.9,29.78,North,-999,-999.0,-999.0,-999,0.00,,,0.00,weatherlink.com 1.10,2013-10-17 04:31:00,
2013-10-17 05:46:00,-999.0,-99.9,29.78,North,-999,-999.0,-999.0,-999,0.00,,,0.00,weatherlink.com 1.10,2013-10-17 04:46:00,
2013-10-17 06:01:00,-999.0,-99.9,29.79,North,-999,-999.0,-999.0,-999,0.00,,,0.00,weatherlink.com 1.10,2013-10-17 05:01:00,
2013-10-17 06:16:00,-999.0,-99.9,29.79,North,-999,-999.0,-999.0,-999,0.00,,,0.00,weatherlink.com 1.10,2013-10-17 05:16:00,
2013-10-17 06:31:00,-999.0,-99.9,29.79,North,-999,-999.0,-999.0,-999,0.00,,,0.00,weatherlink.com 1.10,2013-10-17 05:31:00,
2013-10-17 06:46:00,-999.0,-99.9,29.79,North,-999,-999.0,-999.0,-999,0.00,,,0.00,weatherlink.com 1.10,2013-10-17 05:46:00,
2013-10-17 07:01:00,-999.0,-99.9,29.79,North,-999,-999.0,-999.0,-999,0.00,,,0.00,weatherlink.com 1.10,2013-10-17 06:01:00,
2013-10-17 07:17:00,-999.0,-99.9,29.80,North,-999,-999.0,-999.0,-999,0.00,,,0.00,weatherlink.com 1.10,2013-10-17 06:17:00,
2013-10-17 07:32:00,-999.0,-99.9,29.80,North,-999,-999.0,-999.0,-999,0.00,,,0.00,weatherlink.com 1.10,2013-10-17 06:32:00,
2013-10-17 07:47:00,-999.0,-99.9,29.80,North,-999,-999.0,-999.0,-999,0.00,,,0.00,weatherlink.com 1.10,2013-10-17 06:47:00,
2013-10-17 08:02:00,-999.0,-99.9,29.81,North,-999,-999.0,-999.0,-999,0.00,,,0.00,weatherlink.com 1.10,2013-10-17 07:02:00,
2013-10-17 08:17:00,-999.0,-99.9,29.81,North,-999,-999.0,-999.0,-999,0.00,,,0.00,weatherlink.com 1.10,2013-10-17 07:17:00,
2013-10-17 08:32:00,-999.0,-99.9,29.82,North,-999,-999.0,-999.0,-999,0.00,,,0.00,weatherlink.com 1.10,2013-10-17 07:32:00,
2013-10-17 08:47:00,50.5,49.0,29.82,ESE,107,0.0,2.0,94,0.00,,,0.00,weatherlink.com 1.10,2013-10-17 07:47:00,
2013-10-17 09:02:00,49.9,48.0,29.83,ESE,107,0.0,1.0,93,0.00,,,0.00,weatherlink.com 1.10,2013-10-17 08:02:00,
2013-10-17 09:17:00,50.1,48.0,29.83,ESE,107,0.0,0.0,93,0.00,,,0.00,weatherlink.com 1.10,2013-10-17 08:17:00,
2013-10-17 09:32:00,50.4,49.0,29.84,ESE,107,1.0,1.0,94,0.00,,,0.00,weatherlink.com 1.10,2013-10-17 08:32:00,
2013-10-17 09:47:00,51.5,50.0,29.84,SE,136,0.0,1.0,94,0.00,,,0.00,weatherlink.com 1.10,2013-10-17 08:47:00,
2013-10-17 10:02:00,53.6,52.0,29.84,WSW,256,0.0,4.0,94,0.00,,,0.00,weatherlink.com 1.10,2013-10-17 09:02:00,
2013-10-17 10:17:00,54.4,52.0,29.85,SSE,167,0.0,2.0,92,0.00,,,0.00,weatherlink.com 1.10,2013-10-17 09:17:00,
2013-10-17 10:32:00,55.2,53.0,29.85,SSW,199,1.0,4.0,91,0.00,,,0.00,weatherlink.com 1.10,2013-10-17 09:32:00,
2013-10-17 10:47:00,56.3,54.0,29.85,SSW,212,2.0,4.0,90,0.00,,,0.00,weatherlink.com 1.10,2013-10-17 09:47:00,
2013-10-17 11:02:00,57.2,53.0,29.86,WSW,243,2.0,7.0,87,0.00,,,0.00,weatherlink.com 1.10,2013-10-17 10:02:00,
2013-10-17 11:17:00,57.4,53.0,29.86,SW,232,4.0,10.0,85,0.00,,,0.00,weatherlink.com 1.10,2013-10-17 10:17:00,
2013-10-17 11:32:00,58.0,54.0,29.86,North,6,1.0,6.0,85,0.00,,,0.00,weatherlink.com 1.10,2013-10-17 10:32:00,
2013-10-17 11:47:00,58.2,53.0,29.86,WNW,293,1.0,7.0,83,0.00,,,0.00,weatherlink.com 1.10,2013-10-17 10:47:00,
2013-10-17 12:02:00,58.6,54.0,29.87,SW,235,3.0,5.0,83,0.00,,,0.00,weatherlink.com 1.10,2013-10-17 11:02:00,
2013-10-17 12:17:00,59.3,54.0,29.86,SW,229,4.0,6.0,82,0.00,,,0.00,weatherlink.com 1.10,2013-10-17 11:17:00,
2013-10-17 12:33:00,59.4,54.0,29.87,WSW,255,2.0,6.0,82,0.00,,,0.00,weatherlink.com 1.10,2013-10-17 11:33:00,
2013-10-17 12:48:00,59.5,54.0,29.87,West,262,3.0,7.0,82,0.00,,,0.00,weatherlink.com 1.10,2013-10-17 11:48:00,
2013-10-17 13:18:00,60.7,54.0,29.87,WNW,283,2.0,7.0,79,0.00,,,0.00,weatherlink.com 1.10,2013-10-17 12:18:00,
2013-10-17 13:33:00,61.3,53.0,29.86,North,352,2.0,10.0,75,0.00,,,0.00,weatherlink.com 1.10,2013-10-17 12:33:00,
2013-10-17 13:48:00,61.4,53.0,29.86,WSW,244,1.0,8.0,75,0.00,,,0.00,weatherlink.com 1.10,2013-10-17 12:48:00,
2013-10-17 14:03:00,61.5,54.0,29.86,West,276,5.0,9.0,75,0.00,,,0.00,weatherlink.com 1.10,2013-10-17 13:03:00,
2013-10-17 14:18:00,61.8,53.0,29.86,West,259,1.0,8.0,74,0.00,,,0.00,weatherlink.com 1.10,2013-10-17 13:18:00,
2013-10-17 14:33:00,62.1,54.0,29.86,ENE,60,1.0,7.0,74,0.00,,,0.00,weatherlink.com 1.10,2013-10-17 13:33:00,
2013-10-17 14:48:00,62.3,54.0,29.86,SSW,204,0.0,4.0,73,0.00,,,0.00,weatherlink.com 1.10,2013-10-17 13:48:00,
2013-10-17 15:03:00,62.4,53.0,29.86,West,278,2.0,7.0,71,0.00,,,0.00,weatherlink.com 1.10,2013-10-17 14:03:00,
2013-10-17 15:18:00,62.8,53.0,29.86,WSW,246,1.0,6.0,71,0.00,,,0.00,weatherlink.com 1.10,2013-10-17 14:18:00,
2013-10-17 15:33:00,63.0,54.0,29.86,SSE,160,2.0,4.0,72,0.00,,,0.00,weatherlink.com 1.10,2013-10-17 14:33:00,
2013-10-17 15:48:00,62.7,53.0,29.86,SSE,153,2.0,6.0,71,0.00,,,0.00,weatherlink.com 1.10,2013-10-17 14:48:00,
2013-10-17 16:03:00,63.2,54.0,29.86,West,264,1.0,7.0,71,0.00,,,0.00,weatherlink.com 1.10,2013-10-17 15:03:00,
2013-10-17 16:18:00,63.5,53.0,29.86,NW,311,1.0,8.0,69,0.00,,,0.00,weatherlink.com 1.10,2013-10-17 15:18:00,
2013-10-17 16:33:00,63.1,53.0,29.86,SW,214,2.0,4.0,69,0.00,,,0.00,weatherlink.com 1.10,2013-10-17 15:33:00,
2013-10-17 16:48:00,63.0,53.0,29.86,SSE,162,3.0,9.0,69,0.00,,,0.00,weatherlink.com 1.10,2013-10-17 15:48:00,
2013-10-17 17:03:00,62.9,53.0,29.86,ESE,113,3.0,7.0,70,0.00,,,0.00,weatherlink.com 1.10,2013-10-17 16:03:00,
2013-10-17 17:18:00,62.6,53.0,29.86,SSE,153,2.0,5.0,70,0.00,,,0.00,weatherlink.com 1.10,2013-10-17 16:18:00,
2013-10-17 17:33:00,62.2,53.0,29.86,SW,231,2.0,3.0,71,0.00,,,0.00,weatherlink.com 1.10,2013-10-17 16:33:00,
2013-10-17 17:48:00,61.5,53.0,29.86,SSW,203,1.0,2.0,73,0.00,,,0.00,weatherlink.com 1.10,2013-10-17 16:48:00,
2013-10-17 18:03:00,60.8,52.0,29.86,SSE,163,1.0,4.0,74,0.00,,,0.00,weatherlink.com 1.10,2013-10-17 17:03:00,
2013-10-17 18:18:00,59.2,53.0,29.86,ENE,61,0.0,2.0,80,0.00,,,0.00,weatherlink.com 1.10,2013-10-17 17:18:00,
2013-10-17 18:33:00,58.1,53.0,29.87,ENE,77,0.0,3.0,84,0.00,,,0.00,weatherlink.com 1.10,2013-10-17 17:33:00,
2013-10-17 18:48:00,57.5,53.0,29.86,East,91,0.0,2.0,86,0.00,,,0.00,weatherlink.com 1.10,2013-10-17 17:48:00,
2013-10-17 19:03:00,56.7,53.0,29.87,East,87,0.0,1.0,87,0.00,,,0.00,weatherlink.com 1.10,2013-10-17 18:03:00,
2013-10-17 19:18:00,56.3,53.0,29.87,East,87,1.0,1.0,89,0.00,,,0.00,weatherlink.com 1.10,2013-10-17 18:18:00,
2013-10-17 19:33:00,56.3,53.0,29.88,ENE,77,2.0,2.0,89,0.00,,,0.00,weatherlink.com 1.10,2013-10-17 18:33:00,
2013-10-17 19:48:00,55.9,53.0,29.88,ENE,64,0.0,1.0,89,0.00,,,0.00,weatherlink.com 1.10,2013-10-17 18:48:00,
2013-10-17 20:03:00,55.7,53.0,29.87,ENE,64,1.0,1.0,90,0.00,,,0.00,weatherlink.com 1.10,2013-10-17 19:03:00,
2013-10-17 20:18:00,55.5,53.0,29.88,ENE,64,0.0,1.0,90,0.00,,,0.00,weatherlink.com 1.10,2013-10-17 19:18:00,
2013-10-17 20:33:00,55.5,53.0,29.88,ENE,77,0.0,2.0,90,0.00,,,0.00,weatherlink.com 1.10,2013-10-17 19:33:00,
2013-10-17 20:48:00,54.8,52.0,29.88,NE,56,1.0,1.0,91,0.00,,,0.00,weatherlink.com 1.10,2013-10-17 19:48:00,
2013-10-17 21:03:00,54.4,52.0,29.87,ENE,60,0.0,0.0,91,0.00,,,0.00,weatherlink.com 1.10,2013-10-17 20:03:00,
2013-10-17 21:18:00,54.2,52.0,29.87,ENE,60,0.0,0.0,92,0.00,,,0.00,weatherlink.com 1.10,2013-10-17 20:18:00,
2013-10-17 21:33:00,54.2,52.0,29.88,ENE,58,0.0,1.0,93,0.00,,,0.00,weatherlink.com 1.10,2013-10-17 20:33:00,
2013-10-17 21:48:00,54.1,52.0,29.88,ENE,58,0.0,0.0,93,0.00,,,0.00,weatherlink.com 1.10,2013-10-17 20:48:00,
2013-10-17 22:03:00,54.3,53.0,29.88,ENE,58,0.0,0.0,94,0.00,,,0.00,weatherlink.com 1.10,2013-10-17 21:03:00,
2013-10-17 22:18:00,55.4,54.0,29.88,ENE,63,0.0,1.0,94,0.00,,,0.00,weatherlink.com 1.10,2013-10-17 21:18:00,
2013-10-17 22:33:00,55.3,54.0,29.88,East,96,0.0,1.0,94,0.00,,,0.00,weatherlink.com 1.10,2013-10-17 21:33:00,
2013-10-17 22:48:00,55.1,54.0,29.88,WSW,240,0.0,1.0,94,0.00,,,0.00,weatherlink.com 1.10,2013-10-17 21:48:00,
2013-10-17 23:03:00,55.3,54.0,29.89,ENE,70,0.0,2.0,94,0.00,,,0.00,weatherlink.com 1.10,2013-10-17 22:03:00,
2013-10-17 23:18:00,55.7,54.0,29.88,ENE,64,1.0,2.0,94,0.00,,,0.00,weatherlink.com 1.10,2013-10-17 22:18:00,
2013-10-17 23:33:00,55.8,54.0,29.88,SSW,197,0.0,0.0,93,0.00,,,0.00,weatherlink.com 1.10,2013-10-17 22:33:00,
2013-10-17 23:48:00,55.9,54.0,29.89,ENE,60,0.0,2.0,93,0.00,,,0.00,weatherlink.com 1.10,2013-10-17 22:48:00,